createdAt,value
2018-01-25T00:00:52.670Z,2.93
2018-01-25T00:03:20.128Z,2.82
2018-01-25T00:05:47.886Z,2.92
2018-01-25T00:08:15.340Z,2.90
2018-01-25T00:10:42.790Z,2.98
2018-01-25T00:13:10.893Z,2.98
2018-01-25T00:15:38.348Z,2.99
2018-01-25T00:18:05.805Z,3.01
2018-01-25T00:20:33.564Z,2.96
2018-01-25T00:23:01.017Z,2.94
2018-01-25T00:25:28.469Z,2.99
2018-01-25T00:27:56.251Z,2.99
2018-01-25T00:30:23.724Z,3.01
2018-01-25T00:32:51.190Z,2.90
2018-01-25T00:35:19.248Z,2.90
2018-01-25T00:37:46.693Z,2.91
2018-01-25T00:40:14.881Z,2.87
2018-01-25T00:42:42.548Z,2.74
2018-01-25T00:45:09.995Z,2.70
2018-01-25T00:47:37.457Z,2.81
2018-01-25T00:50:05.242Z,2.78
2018-01-25T00:52:32.700Z,2.67
2018-01-25T00:55:00.165Z,2.62
2018-01-25T00:57:27.930Z,2.52
2018-01-25T00:59:55.385Z,2.28
2018-01-25T01:02:22.851Z,2.67
2018-01-25T01:04:50.612Z,2.67
2018-01-25T01:07:18.086Z,2.49
2018-01-25T01:09:45.557Z,2.63
2018-01-25T01:12:13.296Z,2.79
2018-01-25T01:14:40.753Z,2.63
2018-01-25T01:17:08.210Z,2.53
2018-01-25T01:19:35.984Z,2.67
2018-01-25T01:22:03.445Z,2.81
2018-01-25T01:24:30.898Z,2.65
2018-01-25T01:26:58.985Z,2.77
2018-01-25T01:29:26.444Z,2.84
2018-01-25T01:38:37.836Z,2.38
2018-01-25T01:41:06.025Z,2.45
2018-01-25T01:43:33.480Z,2.45
2018-01-25T01:46:01.193Z,2.61
2018-01-25T01:48:28.666Z,2.59
2018-01-25T01:50:56.121Z,2.56
2018-01-25T01:53:23.873Z,2.60
2018-01-25T01:55:51.333Z,2.69
2018-01-25T01:58:18.797Z,2.65
2018-01-25T02:00:46.515Z,2.58
2018-01-25T02:03:13.973Z,2.30
2018-01-25T02:05:41.418Z,2.38
2018-01-25T02:08:09.247Z,2.42
2018-01-25T02:10:36.697Z,2.45
2018-01-25T02:13:04.160Z,2.31
2018-01-25T02:15:31.927Z,2.21
2018-01-25T02:17:59.383Z,2.21
2018-01-25T02:20:26.842Z,2.18
2018-01-25T02:22:54.612Z,2.01
2018-01-25T02:25:22.077Z,1.92
2018-01-25T02:27:49.533Z,1.86
2018-01-25T02:30:17.612Z,1.68
2018-01-25T02:32:45.064Z,1.78
2018-01-25T02:35:12.521Z,1.66
2018-01-25T02:37:40.312Z,1.73
2018-01-25T02:40:07.766Z,1.68
2018-01-25T02:42:35.616Z,1.68
2018-01-25T02:45:03.297Z,1.72
2018-01-25T02:47:30.760Z,1.62
2018-01-25T02:49:58.221Z,1.63
2018-01-25T02:52:26.290Z,1.53
2018-01-25T02:54:53.752Z,1.42
2018-01-25T02:57:21.222Z,1.37
2018-01-25T02:59:48.814Z,1.29
2018-01-25T03:02:16.274Z,1.36
2018-01-25T03:04:43.735Z,1.39
2018-01-25T03:07:11.611Z,1.36
2018-01-25T03:09:39.073Z,1.32
2018-01-25T03:12:06.523Z,1.27
2018-01-25T03:14:34.340Z,1.29
2018-01-25T03:17:01.801Z,1.22
2018-01-25T03:19:29.261Z,1.12
2018-01-25T03:21:57.025Z,1.14
2018-01-25T03:24:24.485Z,1.07
2018-01-25T03:26:51.953Z,0.93
2018-01-25T03:29:19.728Z,0.82
2018-01-25T03:31:47.191Z,0.91
2018-01-25T03:34:14.682Z,0.89
2018-01-25T03:36:42.405Z,0.97
2018-01-25T03:39:09.863Z,0.91
2018-01-25T03:41:37.315Z,0.77
2018-01-25T03:44:05.868Z,0.75
2018-01-25T03:46:33.330Z,0.73
2018-01-25T03:49:00.786Z,0.81
2018-01-25T03:51:28.722Z,0.83
2018-01-25T03:53:56.173Z,0.83
2018-01-25T03:56:23.627Z,0.81
2018-01-25T03:58:51.400Z,0.80
2018-01-25T04:01:18.857Z,0.79
2018-01-25T04:03:46.320Z,0.83
2018-01-25T04:06:14.104Z,0.86
2018-01-25T04:08:41.564Z,0.97
2018-01-25T04:11:09.023Z,1.01
2018-01-25T04:13:36.761Z,1.09
2018-01-25T04:16:04.214Z,1.14
2018-01-25T04:18:31.669Z,1.12
2018-01-25T04:20:59.425Z,1.10
2018-01-25T04:23:26.890Z,1.22
2018-01-25T04:25:54.346Z,1.19
2018-01-25T04:28:22.150Z,1.62
2018-01-25T04:30:49.621Z,1.34
2018-01-25T04:33:17.074Z,1.45
2018-01-25T04:35:44.824Z,1.37
2018-01-25T04:38:12.293Z,1.54
2018-01-25T04:40:39.754Z,1.96
2018-01-25T04:43:07.488Z,1.69
2018-01-25T04:45:35.665Z,1.65
2018-01-25T04:48:03.124Z,1.75
2018-01-25T04:50:30.818Z,1.79
2018-01-25T04:52:58.276Z,1.59
2018-01-25T04:55:25.732Z,1.49
2018-01-25T04:57:53.808Z,1.34
2018-01-25T05:00:21.269Z,1.25
2018-01-25T05:02:48.724Z,1.12
2018-01-25T05:05:16.489Z,1.04
2018-01-25T05:07:43.939Z,1.05
2018-01-25T05:10:11.402Z,0.96
2018-01-25T05:12:39.189Z,0.78
2018-01-25T05:15:07.120Z,0.72
2018-01-25T05:17:36.071Z,0.85
2018-01-25T05:20:03.744Z,0.92
2018-01-25T05:22:31.200Z,1.10
2018-01-25T05:24:58.657Z,1.20
2018-01-25T05:27:26.407Z,1.13
2018-01-25T05:29:53.862Z,1.06
2018-01-25T05:32:21.329Z,1.10
2018-01-25T05:34:49.080Z,1.19
2018-01-25T05:37:16.533Z,1.23
2018-01-25T05:39:43.980Z,1.20
2018-01-25T05:42:11.740Z,1.13
2018-01-25T05:44:39.204Z,1.31
2018-01-25T05:47:07.680Z,1.40
2018-01-25T05:49:35.384Z,1.45
2018-01-25T05:52:02.850Z,1.58
2018-01-25T05:54:30.313Z,1.60
2018-01-25T05:56:58.065Z,1.48
2018-01-25T05:59:25.528Z,1.41
2018-01-25T06:01:52.986Z,1.41
2018-01-25T06:04:21.056Z,1.41
2018-01-25T06:06:48.518Z,1.38
2018-01-25T06:09:15.981Z,1.33
2018-01-25T06:11:43.744Z,1.48
2018-01-25T06:14:11.588Z,1.44
2018-01-25T06:16:39.046Z,1.47
2018-01-25T06:19:07.048Z,1.53
2018-01-25T06:21:34.501Z,1.66
2018-01-25T06:24:01.959Z,1.77
2018-01-25T06:26:29.750Z,3.21
2018-01-25T06:28:57.206Z,2.20
2018-01-25T06:31:24.667Z,2.04
2018-01-25T06:33:52.418Z,2.07
2018-01-25T06:36:19.870Z,1.88
2018-01-25T06:38:47.328Z,1.83
2018-01-25T06:41:15.036Z,1.68
2018-01-25T06:43:42.498Z,1.50
2018-01-25T06:46:09.959Z,1.70
2018-01-25T06:48:38.414Z,1.61
2018-01-25T06:51:05.869Z,1.71
2018-01-25T06:53:33.321Z,1.71
2018-01-25T06:56:01.098Z,1.72
2018-01-25T06:58:28.561Z,1.86
2018-01-25T07:00:56.029Z,1.84
2018-01-25T07:03:23.790Z,1.90
2018-01-25T07:05:51.256Z,1.92
2018-01-25T07:08:18.718Z,1.92
2018-01-25T07:10:46.477Z,1.82
2018-01-25T07:13:13.941Z,1.90
2018-01-25T07:15:41.408Z,1.77
2018-01-25T07:18:09.160Z,1.81
2018-01-25T07:20:36.620Z,1.98
2018-01-25T07:23:04.082Z,2.02
2018-01-25T07:25:32.160Z,2.16
2018-01-25T07:27:59.636Z,2.08
2018-01-25T07:30:27.089Z,2.12
2018-01-25T07:32:54.843Z,2.16
2018-01-25T07:35:22.308Z,2.17
2018-01-25T07:37:49.769Z,2.28
2018-01-25T07:40:17.528Z,2.30
2018-01-25T07:42:44.988Z,2.33
2018-01-25T07:45:12.445Z,2.27
2018-01-25T07:47:40.548Z,2.18
2018-01-25T07:50:08.378Z,2.28
2018-01-25T07:52:35.827Z,2.38
2018-01-25T07:55:03.813Z,2.31
2018-01-25T07:57:36.669Z,2.31
2018-01-25T08:00:04.577Z,2.35
2018-01-25T08:02:33.933Z,2.62
2018-01-25T08:05:01.400Z,2.76
2018-01-25T08:07:29.189Z,2.78
2018-01-25T08:09:56.654Z,2.88
2018-01-25T08:12:24.100Z,2.67
2018-01-25T08:14:51.805Z,2.78
2018-01-25T08:17:19.269Z,3.09
2018-01-25T08:19:46.721Z,3.36
2018-01-25T08:22:14.484Z,3.36
2018-01-25T08:24:41.937Z,3.12
2018-01-25T08:27:09.388Z,3.49
2018-01-25T08:29:37.172Z,3.48
2018-01-25T08:32:04.628Z,3.28
2018-01-25T08:34:32.085Z,3.56
2018-01-25T08:36:59.749Z,3.65
2018-01-25T08:39:27.206Z,3.73
2018-01-25T08:41:54.665Z,3.47
2018-01-25T08:44:22.541Z,3.43
2018-01-25T08:46:50.081Z,3.72
2018-01-25T08:49:17.546Z,3.97
2018-01-25T08:51:47.994Z,3.61
2018-01-25T08:54:15.460Z,3.54
2018-01-25T08:56:42.911Z,3.60
2018-01-25T08:59:10.699Z,3.82
2018-01-25T09:01:38.166Z,3.49
2018-01-25T09:04:05.629Z,4.14
2018-01-25T09:06:33.457Z,4.23
2018-01-25T09:09:00.896Z,4.03
2018-01-25T09:11:28.348Z,4.13
2018-01-25T09:13:56.389Z,4.41
2018-01-25T09:16:23.843Z,4.46
2018-01-25T09:18:51.296Z,4.33
2018-01-25T09:21:19.350Z,4.51
2018-01-25T09:23:46.804Z,4.42
2018-01-25T09:26:14.285Z,4.31
2018-01-25T09:28:42.050Z,4.43
2018-01-25T09:31:09.512Z,3.72
2018-01-25T09:33:36.975Z,4.34
2018-01-25T09:36:05.041Z,4.36
2018-01-25T09:38:32.495Z,4.02
2018-01-25T09:40:59.968Z,4.45
2018-01-25T09:43:27.728Z,3.80
2018-01-25T09:45:55.185Z,3.99
2018-01-25T09:48:22.663Z,4.84
2018-01-25T09:50:50.408Z,5.14
2018-01-25T09:53:18.878Z,5.09
2018-01-25T09:55:46.331Z,5.03
2018-01-25T09:58:14.377Z,4.92
2018-01-25T10:00:41.834Z,4.97
2018-01-25T10:03:09.284Z,5.68
2018-01-25T10:05:37.022Z,5.15
2018-01-25T10:08:04.478Z,5.09
2018-01-25T10:10:31.945Z,4.89
2018-01-25T10:12:59.708Z,5.38
2018-01-25T10:15:27.153Z,5.57
2018-01-25T10:17:54.647Z,5.37
2018-01-25T10:20:22.389Z,5.84
2018-01-25T10:22:49.841Z,5.29
2018-01-25T10:25:17.306Z,4.90
2018-01-25T10:27:45.081Z,5.34
2018-01-25T10:30:12.532Z,5.49
2018-01-25T10:32:40.010Z,5.37
2018-01-25T10:35:07.781Z,5.22
2018-01-25T10:37:35.240Z,5.39
2018-01-25T10:40:02.705Z,5.51
2018-01-25T10:42:30.441Z,5.63
2018-01-25T10:44:57.956Z,4.92
2018-01-25T10:47:25.420Z,4.70
2018-01-25T10:49:53.132Z,4.83
2018-01-25T10:52:20.581Z,5.18
2018-01-25T10:54:50.284Z,5.48
2018-01-25T10:57:17.984Z,5.27
2018-01-25T10:59:45.437Z,5.24
2018-01-25T11:02:13.687Z,4.92
2018-01-25T11:04:41.581Z,5.52
2018-01-25T11:07:09.034Z,5.58
2018-01-25T11:09:36.482Z,5.36
2018-01-25T11:12:04.265Z,5.53
2018-01-25T11:14:31.724Z,5.32
2018-01-25T11:16:59.172Z,5.36
2018-01-25T11:19:26.962Z,5.57
2018-01-25T11:21:54.424Z,5.58
2018-01-25T11:24:21.881Z,5.47
2018-01-25T11:26:49.640Z,5.44
2018-01-25T11:29:17.094Z,5.33
2018-01-25T11:31:44.553Z,5.41
2018-01-25T11:34:12.637Z,5.05
2018-01-25T11:36:40.468Z,5.00
2018-01-25T11:39:07.920Z,5.56
2018-01-25T11:41:35.941Z,5.30
2018-01-25T11:44:03.398Z,5.39
2018-01-25T11:46:30.850Z,5.13
2018-01-25T11:48:58.633Z,4.30
2018-01-25T11:51:26.090Z,5.15
2018-01-25T11:53:53.541Z,5.20
2018-01-25T11:56:21.932Z,4.98
2018-01-25T11:58:49.385Z,4.62
2018-01-25T12:01:16.840Z,5.13
2018-01-25T12:03:44.609Z,4.93
2018-01-25T12:06:12.064Z,5.00
2018-01-25T12:08:39.522Z,4.56
2018-01-25T12:11:07.296Z,5.22
2018-01-25T12:13:34.747Z,5.63
2018-01-25T12:16:02.198Z,5.62
2018-01-25T12:18:29.837Z,5.55
2018-01-25T12:20:57.291Z,5.22
2018-01-25T12:23:24.736Z,5.30
2018-01-25T12:25:52.606Z,4.50
2018-01-25T12:28:20.056Z,5.17
2018-01-25T12:30:47.516Z,4.97
2018-01-25T12:33:15.545Z,4.91
2018-01-25T12:35:43.030Z,4.92
2018-01-25T12:38:10.494Z,4.97
2018-01-25T12:40:38.353Z,4.82
2018-01-25T12:43:05.804Z,4.58
2018-01-25T12:45:33.256Z,4.18
2018-01-25T12:48:01.289Z,4.57
2018-01-25T12:50:28.736Z,4.37
2018-01-25T12:52:56.199Z,4.47
2018-01-25T12:55:24.035Z,4.90
2018-01-25T12:57:52.184Z,4.45
2018-01-25T13:00:19.648Z,4.32
2018-01-25T13:02:47.585Z,4.45
2018-01-25T13:05:15.037Z,4.89
2018-01-25T13:07:42.491Z,4.82
2018-01-25T13:10:10.328Z,4.66
2018-01-25T13:12:37.781Z,4.63
2018-01-25T13:15:05.247Z,4.82
2018-01-25T13:17:33.018Z,4.39
2018-01-25T13:20:00.482Z,4.85
2018-01-25T13:22:27.945Z,4.93
2018-01-25T13:24:55.702Z,4.56
2018-01-25T13:27:23.153Z,4.68
2018-01-25T13:29:50.599Z,4.87
2018-01-25T13:32:20.241Z,4.77
2018-01-25T13:34:47.693Z,4.94
2018-01-25T13:37:15.160Z,4.98
2018-01-25T13:39:42.928Z,4.53
2018-01-25T13:42:10.384Z,5.29
2018-01-25T13:44:37.848Z,4.78
2018-01-25T13:47:05.624Z,4.72
2018-01-25T13:49:33.076Z,4.83
2018-01-25T13:52:00.524Z,4.10
2018-01-25T13:54:28.301Z,4.28
2018-01-25T13:56:55.761Z,4.57
2018-01-25T13:59:25.146Z,4.23
2018-01-25T14:01:52.873Z,4.02
2018-01-25T14:04:20.324Z,4.60
2018-01-25T14:06:47.789Z,3.87
2018-01-25T14:09:15.450Z,4.27
2018-01-25T14:11:42.905Z,4.23
2018-01-25T14:14:10.379Z,3.94
2018-01-25T14:16:38.147Z,3.87
2018-01-25T14:19:05.608Z,3.80
2018-01-25T14:21:33.073Z,4.33
2018-01-25T14:24:00.889Z,4.14
2018-01-25T14:26:28.346Z,4.19
2018-01-25T14:28:55.801Z,4.20
2018-01-25T14:31:23.879Z,4.38
2018-01-25T14:33:51.336Z,4.32
2018-01-25T14:36:18.797Z,3.91
2018-01-25T14:38:46.836Z,3.91
2018-01-25T14:41:14.348Z,4.03
2018-01-25T14:43:41.812Z,3.83
2018-01-25T14:46:09.569Z,4.01
2018-01-25T14:48:37.035Z,4.11
2018-01-25T14:51:04.480Z,4.10
2018-01-25T14:53:32.248Z,3.73
2018-01-25T14:55:59.715Z,4.12
2018-01-25T14:58:27.170Z,4.09
2018-01-25T15:00:55.861Z,4.04
2018-01-25T15:03:23.328Z,4.21
2018-01-25T15:05:50.791Z,4.18
2018-01-25T15:08:18.845Z,3.98
2018-01-25T15:10:46.306Z,4.01
2018-01-25T15:13:13.760Z,3.95
2018-01-25T15:15:41.541Z,4.03
2018-01-25T15:18:08.997Z,4.00
2018-01-25T15:20:36.449Z,3.50
2018-01-25T15:23:04.218Z,3.54
2018-01-25T15:25:37.292Z,3.62
2018-01-25T15:28:05.226Z,3.70
2018-01-25T15:30:32.699Z,3.58
2018-01-25T15:33:00.294Z,3.45
2018-01-25T15:35:28.292Z,3.64
2018-01-25T15:37:55.748Z,3.65
2018-01-25T15:40:23.205Z,3.65
2018-01-25T15:42:50.985Z,3.64
2018-01-25T15:45:18.440Z,3.56
2018-01-25T15:47:45.905Z,3.67
2018-01-25T15:50:13.675Z,3.66
2018-01-25T15:52:41.133Z,3.60
2018-01-25T15:55:08.588Z,3.66
2018-01-25T15:57:36.381Z,3.68
2018-01-25T16:00:03.828Z,3.49
2018-01-25T16:02:32.394Z,3.17
2018-01-25T16:05:00.256Z,3.38
2018-01-25T16:07:27.708Z,3.25
2018-01-25T16:09:55.164Z,3.32
2018-01-25T16:12:22.953Z,3.43
2018-01-25T16:14:50.420Z,3.46
2018-01-25T16:17:17.881Z,3.48
2018-01-25T16:19:45.697Z,3.25
2018-01-25T16:22:13.146Z,3.39
2018-01-25T16:24:40.609Z,3.25
2018-01-25T16:27:08.325Z,3.37
2018-01-25T16:29:35.786Z,3.36
2018-01-25T16:32:03.266Z,3.40
2018-01-25T16:34:31.005Z,3.54
2018-01-25T16:36:58.469Z,3.46
2018-01-25T16:39:27.466Z,3.36
2018-01-25T16:41:55.543Z,3.20
2018-01-25T16:44:23.833Z,3.22
2018-01-25T16:46:51.289Z,3.14
2018-01-25T16:49:19.153Z,3.16
2018-01-25T16:51:46.965Z,3.09
2018-01-25T16:54:14.903Z,3.28
2018-01-25T16:56:43.260Z,3.44
2018-01-25T16:59:11.325Z,3.34
2018-01-25T17:01:38.850Z,3.48
2018-01-25T17:04:07.780Z,3.43
2018-01-25T17:06:35.404Z,3.36
2018-01-25T17:09:03.440Z,3.57
2018-01-25T17:11:31.161Z,3.15
2018-01-25T17:13:58.629Z,3.40
2018-01-25T17:16:26.480Z,3.52
2018-01-25T17:18:55.124Z,3.40
2018-01-25T17:21:22.977Z,3.60
2018-01-25T17:23:50.724Z,3.49
2018-01-25T17:26:19.172Z,3.45
2018-01-25T17:28:47.773Z,3.59
2018-01-25T17:31:15.755Z,3.44
2018-01-25T17:33:44.408Z,3.54
2018-01-25T17:36:12.555Z,3.58
2018-01-25T17:38:40.498Z,3.38
2018-01-25T17:41:08.713Z,3.36
2018-01-25T17:43:36.788Z,3.23
2018-01-25T17:46:04.739Z,3.46
2018-01-25T17:48:33.037Z,3.57
2018-01-25T17:51:01.136Z,3.53
2018-01-25T17:53:28.820Z,3.42
2018-01-25T17:55:56.942Z,3.59
2018-01-25T17:58:24.814Z,3.31
2018-01-25T18:00:52.983Z,3.61
2018-01-25T18:03:21.376Z,3.45
2018-01-25T18:05:50.300Z,3.29
2018-01-25T18:08:17.828Z,3.25
2018-01-25T18:10:45.693Z,3.31
2018-01-25T18:13:13.711Z,3.39
2018-01-25T18:15:41.243Z,3.44
2018-01-25T18:18:09.306Z,3.52
2018-01-25T18:20:37.512Z,3.50
2018-01-25T18:23:05.895Z,3.52
2018-01-25T18:25:34.065Z,3.33
2018-01-25T18:28:01.572Z,3.41
2018-01-25T18:30:29.053Z,3.28
2018-01-25T18:32:57.045Z,3.93
2018-01-25T18:42:08.221Z,3.26
2018-01-25T18:44:35.719Z,3.43
2018-01-25T18:47:03.201Z,3.42
2018-01-25T18:49:30.873Z,3.29
2018-01-25T18:51:58.356Z,3.26
2018-01-25T18:54:26.064Z,3.46
2018-01-25T18:56:54.733Z,3.38
2018-01-25T18:59:22.510Z,3.55
2018-01-25T19:01:50.541Z,3.63
2018-01-25T19:04:18.408Z,3.59
2018-01-25T19:06:46.560Z,3.49
2018-01-25T19:09:14.065Z,3.40
2018-01-25T19:11:42.029Z,3.47
2018-01-25T19:14:09.509Z,3.46
2018-01-25T19:16:36.973Z,3.48
2018-01-25T19:19:04.982Z,3.43
2018-01-25T19:21:32.453Z,3.42
2018-01-25T19:23:59.923Z,3.67
2018-01-25T19:26:27.701Z,3.72
2018-01-25T19:28:55.213Z,3.40
2018-01-25T19:31:22.691Z,3.41
2018-01-25T19:33:50.675Z,3.66
2018-01-25T19:36:18.194Z,3.62
2018-01-25T19:38:45.676Z,3.68
2018-01-25T19:41:13.360Z,3.55
2018-01-25T19:43:41.500Z,3.49
2018-01-25T19:46:09.101Z,3.55
2018-01-25T19:48:38.505Z,3.37
2018-01-25T19:51:06.039Z,3.27
2018-01-25T19:53:33.593Z,3.35
2018-01-25T19:56:01.850Z,3.24
2018-01-25T19:58:29.369Z,3.39
2018-01-25T20:00:56.841Z,3.27
2018-01-25T20:03:24.509Z,3.26
2018-01-25T20:05:52.280Z,3.32
2018-01-25T20:08:20.446Z,3.25
2018-01-25T20:10:48.224Z,3.22
2018-01-25T20:13:15.876Z,3.19
2018-01-25T20:15:43.348Z,3.34
2018-01-25T20:18:11.097Z,3.30
2018-01-25T20:20:38.568Z,3.27
2018-01-25T20:23:06.036Z,3.32
2018-01-25T20:25:33.814Z,3.43
2018-01-25T20:28:01.351Z,3.52
2018-01-25T20:30:28.880Z,3.44
2018-01-25T20:32:56.799Z,3.33
2018-01-25T20:35:24.264Z,3.30
2018-01-25T20:37:51.725Z,3.46
2018-01-25T20:40:19.473Z,3.50
2018-01-25T20:42:46.937Z,3.48
2018-01-25T20:45:14.857Z,3.34
2018-01-25T20:47:42.770Z,3.41
2018-01-25T20:50:10.709Z,3.49
2018-01-25T20:52:38.326Z,3.36
2018-01-25T20:55:07.288Z,3.38
2018-01-25T20:57:34.798Z,3.37
2018-01-25T21:00:02.777Z,3.52
2018-01-25T21:02:31.120Z,3.43
2018-01-25T21:04:59.169Z,3.46
2018-01-25T21:07:26.870Z,3.45
2018-01-25T21:09:58.056Z,3.52
2018-01-25T21:12:25.927Z,3.56
2018-01-25T21:14:53.477Z,3.60
2018-01-25T21:17:21.584Z,3.58
2018-01-25T21:19:49.118Z,3.46
2018-01-25T21:22:16.944Z,3.50
2018-01-25T21:24:44.975Z,3.46
2018-01-25T21:27:12.883Z,3.49
2018-01-25T21:29:40.529Z,3.58
2018-01-25T21:32:08.716Z,3.59
2018-01-25T21:34:36.184Z,3.54
2018-01-25T21:37:03.656Z,3.43
2018-01-25T21:39:31.398Z,3.48
2018-01-25T21:41:58.857Z,3.74
2018-01-25T21:44:26.314Z,3.61
2018-01-25T21:46:54.100Z,3.47
2018-01-25T21:49:21.556Z,3.68
2018-01-25T21:51:49.024Z,3.79
2018-01-25T21:54:16.827Z,3.88
2018-01-25T21:56:44.317Z,3.90
2018-01-25T21:59:11.764Z,4.27
2018-01-25T22:01:39.498Z,4.33
2018-01-25T22:04:06.973Z,3.85
2018-01-25T22:06:34.437Z,3.59
2018-01-25T22:09:02.148Z,3.55
2018-01-25T22:11:30.266Z,3.61
2018-01-25T22:13:57.726Z,3.61
2018-01-25T22:16:25.457Z,3.65
2018-01-25T22:18:52.918Z,3.45
2018-01-25T22:21:20.394Z,3.45
2018-01-25T22:23:48.454Z,3.44
2018-01-25T22:26:16.004Z,3.44
2018-01-25T22:28:43.465Z,3.55
2018-01-25T22:31:11.270Z,3.62
2018-01-25T22:33:38.736Z,3.50
2018-01-25T22:36:06.202Z,3.37
2018-01-25T22:38:34.131Z,3.53
2018-01-25T22:41:01.590Z,3.43
2018-01-25T22:43:29.055Z,3.44
2018-01-25T22:45:56.817Z,3.65
2018-01-25T22:48:24.272Z,3.63
2018-01-25T22:50:51.730Z,3.54
2018-01-25T22:53:20.121Z,3.55
2018-01-25T22:55:47.629Z,3.49
2018-01-25T22:58:15.068Z,3.42
2018-01-25T23:00:43.117Z,3.60
2018-01-25T23:03:10.588Z,3.75
2018-01-25T23:05:38.045Z,3.56
2018-01-25T23:08:05.800Z,3.58
2018-01-25T23:10:33.266Z,3.66
2018-01-25T23:13:01.421Z,3.61
2018-01-25T23:15:29.213Z,3.74
2018-01-25T23:17:56.665Z,3.60
2018-01-25T23:20:24.125Z,3.52
2018-01-25T23:22:51.994Z,3.62
2018-01-25T23:25:19.445Z,3.55
2018-01-25T23:27:46.899Z,3.52
2018-01-25T23:30:14.495Z,3.45
2018-01-25T23:32:41.955Z,3.53
2018-01-25T23:35:09.420Z,3.51
2018-01-25T23:37:37.168Z,3.55
2018-01-25T23:40:04.633Z,3.36
2018-01-25T23:42:32.088Z,3.44
2018-01-25T23:44:59.848Z,3.36
2018-01-25T23:47:27.317Z,3.53
2018-01-25T23:49:54.776Z,3.55
2018-01-25T23:52:22.515Z,3.52
2018-01-25T23:54:49.973Z,3.73
2018-01-25T23:57:17.431Z,3.63
2018-01-25T23:59:45.216Z,3.69
